Time;durP1;ratioP1;P1;durP2;ratioP2;P2;SDS_P1;SDS_P2;PMS_P1;PMS_P2;Temp;Humidity;BMP_temperature;BMP_pressure;BME280_temperature;BME280_humidity;BME280_pressure;Samples;Min_cycle;Max_cycle;Signal;HPM_P1;HPM_P2
2021/05/08 00:01:35;;;;;;;1.50;1.30;;;5.60;97.30;;;;;;5021560;28;20540;-78
2021/05/08 00:04:01;;;;;;;1.50;1.30;;;5.60;97.90;;;;;;5023675;28;20513;-77
2021/05/08 00:06:27;;;;;;;1.53;1.37;;;5.50;97.90;;;;;;5017065;28;20563;-78
2021/05/08 00:08:54;;;;;;;1.50;1.30;;;5.50;98.20;;;;;;5030034;28;20520;-77
2021/05/08 00:11:20;;;;;;;1.50;1.30;;;5.50;97.70;;;;;;5018810;28;20837;-77
2021/05/08 00:13:47;;;;;;;1.57;1.40;;;5.50;98.20;;;;;;5038735;28;20463;-79
2021/05/08 00:16:13;;;;;;;1.50;1.30;;;5.40;98.20;;;;;;5022556;28;20540;-77
2021/05/08 00:18:39;;;;;;;1.50;1.27;;;5.40;98.20;;;;;;5038155;28;20473;-77
2021/05/08 00:21:06;;;;;;;1.53;1.40;;;5.40;98.20;;;;;;5013042;28;20506;-76
2021/05/08 00:23:32;;;;;;;1.50;1.30;;;5.40;98.20;;;;;;5025382;28;20467;-76
2021/05/08 00:25:58;;;;;;;1.57;1.30;;;5.40;98.20;;;;;;5018305;28;20542;-76
2021/05/08 00:28:25;;;;;;;1.53;1.30;;;5.40;98.00;;;;;;5042311;28;20471;-76
2021/05/08 00:30:52;;;;;;;1.60;1.40;;;5.40;98.20;;;;;;5017163;28;20990;-77
2021/05/08 00:33:18;;;;;;;1.50;1.30;;;5.30;97.70;;;;;;5024537;28;20845;-76
2021/05/08 00:35:44;;;;;;;1.57;1.40;;;5.30;98.00;;;;;;5027643;28;20466;-76
2021/05/08 00:38:11;;;;;;;1.50;1.30;;;5.30;98.20;;;;;;5009255;28;20559;-76
2021/05/08 00:40:37;;;;;;;1.50;1.30;;;5.30;98.20;;;;;;5027814;28;21016;-77
2021/05/08 00:43:04;;;;;;;1.50;1.30;;;5.30;98.20;;;;;;5014554;28;20892;-77
2021/05/08 00:45:31;;;;;;;1.50;1.30;;;5.30;97.80;;;;;;5025310;28;20491;-77
2021/05/08 00:48:03;;;;;;;1.50;1.40;;;5.20;97.80;;;;;;5017401;28;20517;-76
2021/05/08 00:50:31;;;;;;;1.53;1.30;;;5.20;98.20;;;;;;5028434;28;20486;-77
2021/05/08 00:52:58;;;;;;;1.50;1.30;;;5.20;98.20;;;;;;5015202;28;20487;-76
2021/05/08 00:55:24;;;;;;;1.50;1.40;;;5.20;98.20;;;;;;5026904;28;20467;-77
2021/05/08 00:57:50;;;;;;;1.50;1.30;;;5.20;98.20;;;;;;5016464;28;20499;-78
2021/05/08 01:00:18;;;;;;;1.50;1.30;;;5.20;98.20;;;;;;5026324;28;20459;-76
2021/05/08 01:02:44;;;;;;;1.50;1.20;;;5.10;98.20;;;;;;5014396;28;20483;-76
2021/05/08 01:05:12;;;;;;;1.50;1.30;;;5.10;98.20;;;;;;5023642;28;20463;-76
2021/05/08 01:07:39;;;;;;;1.50;1.30;;;5.10;98.20;;;;;;5036841;28;20513;-76
2021/05/08 01:10:08;;;;;;;1.50;1.30;;;5.10;98.20;;;;;;5025264;28;20491;-76
2021/05/08 01:12:35;;;;;;;1.53;1.30;;;5.10;98.20;;;;;;5020508;28;20483;-77
2021/05/08 01:15:02;;;;;;;1.53;1.40;;;5.10;98.20;;;;;;5027186;28;20957;-77
2021/05/08 01:17:29;;;;;;;1.60;1.50;;;5.10;98.20;;;;;;5034485;28;20864;-76
2021/05/08 01:19:55;;;;;;;1.50;1.30;;;5.10;98.20;;;;;;5029845;28;20470;-77
2021/05/08 01:22:22;;;;;;;1.57;1.30;;;5.00;98.20;;;;;;5031999;28;20481;-77
2021/05/08 01:24:48;;;;;;;1.50;1.40;;;5.00;98.20;;;;;;5034423;28;20463;-77
2021/05/08 01:27:15;;;;;;;1.50;1.30;;;5.00;98.20;;;;;;5019050;28;20545;-76
2021/05/08 01:29:41;;;;;;;1.50;1.30;;;5.00;98.20;;;;;;5027797;28;20990;-76
2021/05/08 01:32:07;;;;;;;1.50;1.30;;;5.00;98.20;;;;;;5026886;28;20478;-76
2021/05/08 01:34:34;;;;;;;1.50;1.30;;;5.00;98.20;;;;;;5029324;28;20498;-77
2021/05/08 01:37:02;;;;;;;1.57;1.30;;;5.00;98.20;;;;;;5024084;28;21055;-77
2021/05/08 01:39:29;;;;;;;1.53;1.30;;;5.00;98.20;;;;;;5028187;28;20556;-77
2021/05/08 01:41:55;;;;;;;1.60;1.40;;;5.00;98.20;;;;;;5008862;28;20479;-76
2021/05/08 01:44:21;;;;;;;1.53;1.40;;;5.00;98.20;;;;;;5019609;28;20459;-77
2021/05/08 01:46:47;;;;;;;1.60;1.50;;;5.00;98.20;;;;;;5029248;28;20936;-77
2021/05/08 01:49:14;;;;;;;1.60;1.40;;;4.90;98.20;;;;;;5033174;28;20503;-78
2021/05/08 01:51:40;;;;;;;1.50;1.37;;;4.90;98.20;;;;;;5025957;28;20487;-77
2021/05/08 01:54:06;;;;;;;1.53;1.30;;;4.90;98.20;;;;;;5037015;28;20471;-77
2021/05/08 01:56:33;;;;;;;1.53;1.30;;;4.90;98.20;;;;;;5015597;28;20487;-76
2021/05/08 01:59:00;;;;;;;1.57;1.40;;;4.90;98.20;;;;;;5027564;28;20846;-76
2021/05/08 02:01:26;;;;;;;1.60;1.40;;;4.90;98.20;;;;;;5024879;28;20494;-76
2021/05/08 02:03:52;;;;;;;1.60;1.40;;;4.90;98.20;;;;;;5040347;28;20464;-77
2021/05/08 02:06:18;;;;;;;1.57;1.40;;;4.90;98.20;;;;;;5020406;28;20487;-76
2021/05/08 02:08:45;;;;;;;1.53;1.30;;;4.90;98.20;;;;;;5026029;28;20509;-76
2021/05/08 02:11:11;;;;;;;1.50;1.30;;;4.90;98.20;;;;;;5018113;28;20516;-77
2021/05/08 02:13:39;;;;;;;1.53;1.40;;;4.90;98.20;;;;;;5030037;28;20513;-76
2021/05/08 02:16:05;;;;;;;1.57;1.40;;;4.80;98.20;;;;;;5019627;28;20873;-78
2021/05/08 02:18:32;;;;;;;1.50;1.20;;;4.80;98.20;;;;;;5027955;28;20820;-77
2021/05/08 02:20:58;;;;;;;1.50;1.40;;;4.80;98.20;;;;;;5016578;28;20475;-77
2021/05/08 02:23:24;;;;;;;1.57;1.30;;;4.70;98.20;;;;;;5022803;28;20464;-76
2021/05/08 02:25:51;;;;;;;1.57;1.40;;;4.70;98.20;;;;;;5019685;28;20479;-77
2021/05/08 02:28:17;;;;;;;1.50;1.30;;;4.70;98.20;;;;;;5022434;28;20915;-77
2021/05/08 02:30:45;;;;;;;1.53;1.30;;;4.70;98.20;;;;;;5029091;28;20586;-78
2021/05/08 02:33:11;;;;;;;1.57;1.40;;;4.70;98.20;;;;;;5016472;28;20472;-76
2021/05/08 02:35:41;;;;;;;1.60;1.30;;;4.60;98.20;;;;;;5024338;28;20467;-77
2021/05/08 02:38:07;;;;;;;1.50;1.30;;;4.60;98.20;;;;;;5012154;28;20464;-77
2021/05/08 02:40:36;;;;;;;1.57;1.40;;;4.60;98.20;;;;;;5019732;28;20838;-77
2021/05/08 02:43:04;;;;;;;1.57;1.40;;;4.70;98.20;;;;;;5005888;28;20491;-77
2021/05/08 02:45:30;;;;;;;1.53;1.30;;;4.70;98.20;;;;;;5022896;28;20478;-76
2021/05/08 02:47:57;;;;;;;1.50;1.37;;;4.60;98.20;;;;;;5012691;28;21002;-77
2021/05/08 02:50:24;;;;;;;1.60;1.30;;;4.60;98.20;;;;;;5023480;28;20574;-77
2021/05/08 02:52:50;;;;;;;1.50;1.30;;;4.60;98.20;;;;;;5010591;28;20562;-78
2021/05/08 02:55:17;;;;;;;1.50;1.20;;;4.60;98.20;;;;;;5030100;28;20471;-77
2021/05/08 02:57:43;;;;;;;1.50;1.40;;;4.50;98.20;;;;;;5025814;28;20493;-78
2021/05/08 03:00:12;;;;;;;1.50;1.30;;;4.60;98.20;;;;;;5023088;28;20468;-78
2021/05/08 03:02:38;;;;;;;1.60;1.40;;;4.50;98.20;;;;;;5030357;28;20482;-78
2021/05/08 03:05:07;;;;;;;1.60;1.40;;;4.50;98.20;;;;;;5024391;28;20486;-77
2021/05/08 03:07:33;;;;;;;1.50;1.30;;;4.60;98.20;;;;;;5019463;28;20487;-78
2021/05/08 03:09:59;;;;;;;1.53;1.30;;;4.60;98.20;;;;;;5029538;28;20487;-77
2021/05/08 03:12:26;;;;;;;1.50;1.30;;;4.60;98.20;;;;;;5014426;28;20649;-77
2021/05/08 03:14:52;;;;;;;1.50;1.40;;;4.60;98.20;;;;;;5027017;28;20460;-77
2021/05/08 03:17:18;;;;;;;1.57;1.40;;;4.60;98.20;;;;;;5018473;28;20482;-76
2021/05/08 03:19:45;;;;;;;1.60;1.30;;;4.60;98.20;;;;;;5028207;28;20550;-77
2021/05/08 03:22:12;;;;;;;1.50;1.40;;;4.60;98.20;;;;;;5029932;28;20493;-77
2021/05/08 03:24:38;;;;;;;1.50;1.40;;;4.60;98.20;;;;;;5027573;28;20985;-77
2021/05/08 03:27:05;;;;;;;1.60;1.40;;;4.60;98.20;;;;;;5032316;28;20490;-77
2021/05/08 03:29:31;;;;;;;1.50;1.30;;;4.60;98.20;;;;;;5028295;28;20464;-77
2021/05/08 03:31:57;;;;;;;1.53;1.30;;;4.60;98.20;;;;;;5020725;28;20487;-77
2021/05/08 03:34:24;;;;;;;1.53;1.30;;;4.60;98.20;;;;;;5027706;28;20471;-76
2021/05/08 03:36:50;;;;;;;1.53;1.30;;;4.60;98.20;;;;;;5026743;28;20509;-76
2021/05/08 03:39:17;;;;;;;1.57;1.33;;;4.60;98.20;;;;;;5032629;28;20475;-77
2021/05/08 03:41:43;;;;;;;1.50;1.30;;;4.60;98.20;;;;;;5016283;28;20479;-76
2021/05/08 03:44:10;;;;;;;1.53;1.40;;;4.60;98.20;;;;;;5024791;28;20460;-77
2021/05/08 03:46:36;;;;;;;1.57;1.40;;;4.70;98.20;;;;;;5024883;28;20557;-78
2021/05/08 03:49:03;;;;;;;1.50;1.30;;;4.70;98.20;;;;;;5030561;28;20753;-77
2021/05/08 03:51:29;;;;;;;1.60;1.50;;;4.70;98.20;;;;;;5016390;28;20530;-77
2021/05/08 03:53:57;;;;;;;1.50;1.40;;;4.80;98.20;;;;;;5034094;28;20471;-77
2021/05/08 03:56:25;;;;;;;1.57;1.40;;;4.80;98.20;;;;;;5017240;28;20660;-77
2021/05/08 03:58:51;;;;;;;1.50;1.30;;;4.80;98.20;;;;;;5025909;28;20479;-78
2021/05/08 04:01:18;;;;;;;1.57;1.37;;;4.80;98.20;;;;;;5012105;28;20482;-76
2021/05/08 04:03:44;;;;;;;1.50;1.30;;;4.80;98.20;;;;;;5035525;28;20490;-78
2021/05/08 04:06:10;;;;;;;1.60;1.40;;;4.80;98.20;;;;;;5023268;28;20490;-76
2021/05/08 04:08:37;;;;;;;1.53;1.30;;;4.80;98.20;;;;;;5039782;28;20464;-76
2021/05/08 04:11:03;;;;;;;1.50;1.30;;;4.80;98.20;;;;;;5016021;28;20487;-76
2021/05/08 04:13:30;;;;;;;1.50;1.30;;;4.80;98.20;;;;;;5041071;28;20478;-77
2021/05/08 04:15:56;;;;;;;1.50;1.30;;;4.80;98.20;;;;;;5007797;28;20471;-78
2021/05/08 04:18:23;;;;;;;1.60;1.40;;;4.80;98.20;;;;;;5036039;28;20506;-76
2021/05/08 04:20:49;;;;;;;1.57;1.40;;;4.80;98.20;;;;;;5012994;28;20822;-77
2021/05/08 04:23:16;;;;;;;1.53;1.40;;;4.80;98.20;;;;;;5034601;28;20467;-76
2021/05/08 04:25:43;;;;;;;1.50;1.30;;;4.70;98.20;;;;;;5026839;28;20460;-76
2021/05/08 04:28:09;;;;;;;1.53;1.30;;;4.80;98.20;;;;;;5032277;28;20729;-77
2021/05/08 04:30:37;;;;;;;1.50;1.30;;;4.80;98.20;;;;;;5028063;28;20827;-77
2021/05/08 04:33:04;;;;;;;1.60;1.37;;;4.80;98.20;;;;;;5011690;28;20540;-76
2021/05/08 04:35:30;;;;;;;1.60;1.40;;;4.80;98.20;;;;;;5022749;28;21084;-77
2021/05/08 04:38:01;;;;;;;1.53;1.30;;;4.80;98.20;;;;;;5014626;28;20510;-76
2021/05/08 04:40:27;;;;;;;1.50;1.20;;;4.90;98.20;;;;;;5028466;28;20493;-77
2021/05/08 04:42:54;;;;;;;1.50;1.30;;;4.90;98.20;;;;;;5022191;28;21183;-77
2021/05/08 04:45:20;;;;;;;1.53;1.30;;;4.90;98.20;;;;;;5028083;28;21051;-76
2021/05/08 04:47:47;;;;;;;1.50;1.30;;;5.00;98.20;;;;;;5012038;28;20549;-76
2021/05/08 04:50:14;;;;;;;1.60;1.30;;;5.00;98.20;;;;;;5029295;28;20502;-77
2021/05/08 04:52:40;;;;;;;1.50;1.30;;;5.10;98.20;;;;;;5021527;28;20483;-76
2021/05/08 04:55:07;;;;;;;1.50;1.30;;;5.20;98.20;;;;;;5023956;28;20952;-76
2021/05/08 04:57:33;;;;;;;1.57;1.30;;;5.20;98.20;;;;;;5033741;28;20482;-75
2021/05/08 04:59:59;;;;;;;1.50;1.30;;;5.30;98.20;;;;;;5036975;28;20467;-76
2021/05/08 05:02:25;;;;;;;1.50;1.30;;;5.40;98.20;;;;;;5039030;28;20490;-76
2021/05/08 05:04:52;;;;;;;1.50;1.30;;;5.60;98.20;;;;;;5035461;28;20812;-77
2021/05/08 05:07:19;;;;;;;1.53;1.27;;;5.70;98.20;;;;;;5037554;28;20485;-76
2021/05/08 05:09:45;;;;;;;1.60;1.40;;;5.80;98.20;;;;;;5035664;28;20759;-77
2021/05/08 05:12:12;;;;;;;1.50;1.30;;;6.00;98.20;;;;;;5034459;28;20489;-77
2021/05/08 05:14:40;;;;;;;1.50;1.30;;;6.10;98.20;;;;;;5033191;28;20467;-76
2021/05/08 05:17:06;;;;;;;1.50;1.30;;;6.30;98.20;;;;;;5023821;28;20490;-77
2021/05/08 05:19:32;;;;;;;1.50;1.30;;;6.40;96.50;;;;;;5032337;28;20471;-76
2021/05/08 05:21:59;;;;;;;1.50;1.30;;;6.50;96.90;;;;;;5021427;28;20490;-76
2021/05/08 05:24:26;;;;;;;1.50;1.30;;;6.70;96.90;;;;;;5029850;28;20470;-76
2021/05/08 05:26:52;;;;;;;1.50;1.20;;;6.80;94.80;;;;;;5022484;28;20493;-75
2021/05/08 05:29:18;;;;;;;1.53;1.20;;;6.80;95.10;;;;;;5031390;28;20635;-76
2021/05/08 05:31:44;;;;;;;1.53;1.20;;;6.80;95.10;;;;;;5025566;28;20482;-76
2021/05/08 05:34:11;;;;;;;1.50;1.20;;;6.90;95.40;;;;;;5041769;28;20470;-77
2021/05/08 05:36:37;;;;;;;1.50;1.20;;;7.10;94.60;;;;;;5023010;28;20482;-77
2021/05/08 05:39:04;;;;;;;1.50;1.20;;;7.20;94.70;;;;;;5024304;28;20464;-75
2021/05/08 05:41:32;;;;;;;1.50;1.20;;;7.30;93.80;;;;;;5021323;28;20482;-76
2021/05/08 05:43:58;;;;;;;1.50;1.20;;;7.40;93.30;;;;;;5026518;28;20840;-77
2021/05/08 05:46:24;;;;;;;1.50;1.20;;;7.60;93.80;;;;;;5023112;28;20539;-76
2021/05/08 05:48:51;;;;;;;4.13;3.83;;;7.70;92.40;;;;;;5035302;28;20467;-76
2021/05/08 05:51:17;;;;;;;1.50;1.20;;;7.80;92.70;;;;;;5020903;28;21017;-78
2021/05/08 05:53:43;;;;;;;1.50;1.20;;;7.90;92.70;;;;;;5037937;28;20464;-78
2021/05/08 05:56:10;;;;;;;1.50;1.20;;;8.00;91.40;;;;;;5008859;28;20487;-77
2021/05/08 05:58:37;;;;;;;1.60;1.30;;;8.10;91.70;;;;;;5022585;28;21628;-76
2021/05/08 06:01:03;;;;;;;4.13;3.13;;;8.10;91.00;;;;;;5018932;28;20467;-77
2021/05/08 06:03:29;;;;;;;1.50;1.10;;;8.20;90.40;;;;;;5024590;28;20463;-75
2021/05/08 06:05:56;;;;;;;1.60;1.40;;;8.30;90.40;;;;;;5015457;28;20487;-76
2021/05/08 06:08:22;;;;;;;1.60;1.10;;;8.40;90.50;;;;;;5037466;28;20567;-79
2021/05/08 06:10:48;;;;;;;1.60;1.20;;;8.60;90.30;;;;;;5021561;28;20483;-77
2021/05/08 06:13:15;;;;;;;1.50;1.10;;;8.90;89.50;;;;;;5040513;28;20850;-75
2021/05/08 06:15:42;;;;;;;1.53;1.27;;;9.00;88.20;;;;;;5026628;28;20464;-77
2021/05/08 06:18:08;;;;;;;1.50;1.10;;;9.00;88.00;;;;;;5032476;28;20514;-77
2021/05/08 06:20:34;;;;;;;1.50;1.10;;;9.00;88.10;;;;;;5022748;28;20959;-77
2021/05/08 06:23:02;;;;;;;1.50;1.20;;;9.00;87.90;;;;;;5015647;28;20479;-77
2021/05/08 06:25:28;;;;;;;1.50;1.20;;;9.10;88.20;;;;;;5030318;28;20502;-77
2021/05/08 06:27:55;;;;;;;1.50;1.10;;;9.10;88.30;;;;;;5020443;28;20495;-77
2021/05/08 06:30:22;;;;;;;1.50;1.00;;;9.10;87.20;;;;;;5030931;28;20623;-76
2021/05/08 06:32:48;;;;;;;1.50;1.13;;;9.10;87.60;;;;;;5011378;28;21028;-77
2021/05/08 06:35:15;;;;;;;1.50;1.10;;;9.10;87.70;;;;;;5023763;28;20472;-76
2021/05/08 06:37:41;;;;;;;1.50;1.10;;;9.10;87.60;;;;;;5011255;28;20514;-76
2021/05/08 06:40:08;;;;;;;1.50;1.00;;;9.20;87.70;;;;;;5019241;28;20468;-77
2021/05/08 06:42:34;;;;;;;1.50;1.10;;;9.30;87.90;;;;;;5010417;28;20483;-77
2021/05/08 06:45:01;;;;;;;1.50;1.00;;;9.40;87.50;;;;;;5020450;28;20472;-76
2021/05/08 06:47:28;;;;;;;1.50;1.10;;;9.60;87.20;;;;;;5030342;28;20490;-77
2021/05/08 06:49:54;;;;;;;1.50;1.00;;;9.80;85.90;;;;;;5027338;28;21029;-77
2021/05/08 06:52:20;;;;;;;1.50;1.10;;;9.90;86.00;;;;;;5014562;28;20526;-77
2021/05/08 06:54:46;;;;;;;1.50;1.00;;;10.10;86.10;;;;;;5029585;28;20463;-77
2021/05/08 06:57:13;;;;;;;1.50;1.10;;;10.20;84.90;;;;;;5024606;28;20501;-78
2021/05/08 06:59:39;;;;;;;1.50;1.10;;;10.30;85.10;;;;;;5028570;28;20468;-78
2021/05/08 07:02:05;;;;;;;1.50;1.07;;;10.40;85.10;;;;;;5019036;28;20474;-78
2021/05/08 07:04:32;;;;;;;1.50;1.00;;;10.50;85.00;;;;;;5033785;28;20977;-76
2021/05/08 07:06:59;;;;;;;1.53;1.10;;;10.80;85.00;;;;;;5011728;28;20940;-77
2021/05/08 07:09:25;;;;;;;1.50;1.00;;;10.90;83.90;;;;;;5022857;28;20459;-76
2021/05/08 07:11:51;;;;;;;1.50;1.10;;;11.00;83.80;;;;;;5024455;28;20516;-78
2021/05/08 07:14:18;;;;;;;1.50;1.00;;;11.10;82.90;;;;;;5032922;28;20457;-78
2021/05/08 07:16:44;;;;;;;1.50;1.10;;;11.20;83.30;;;;;;5012955;28;20501;-77
2021/05/08 07:19:10;;;;;;;1.50;1.00;;;11.30;82.50;;;;;;5033568;28;20825;-78
2021/05/08 07:21:39;;;;;;;1.50;1.00;;;11.40;82.30;;;;;;5028328;28;20957;-78
2021/05/08 07:24:06;;;;;;;1.50;1.00;;;11.40;82.30;;;;;;5032991;28;20468;-77
2021/05/08 07:26:32;;;;;;;1.50;1.00;;;11.50;81.30;;;;;;5016334;28;20488;-78
2021/05/08 07:28:59;;;;;;;1.50;1.00;;;11.50;81.00;;;;;;5032130;28;20463;-79
2021/05/08 07:31:26;;;;;;;1.50;1.00;;;11.50;82.00;;;;;;5017390;28;20486;-77
2021/05/08 07:33:52;;;;;;;1.50;1.10;;;11.60;81.60;;;;;;5039919;28;20473;-77
2021/05/08 07:36:19;;;;;;;1.50;1.00;;;11.60;81.30;;;;;;5015569;28;20495;-76
2021/05/08 07:38:46;;;;;;;1.50;0.93;;;11.70;80.80;;;;;;5023980;28;21013;-77
2021/05/08 07:41:13;;;;;;;1.50;0.93;;;11.70;80.50;;;;;;5018653;28;20491;-77
2021/05/08 07:43:40;;;;;;;1.50;1.10;;;11.80;80.70;;;;;;5027413;28;20839;-77
2021/05/08 07:46:06;;;;;;;1.50;1.10;;;11.90;80.30;;;;;;5016686;28;20680;-76
2021/05/08 07:48:32;;;;;;;1.50;1.00;;;12.00;80.30;;;;;;5019692;28;20463;-78
2021/05/08 07:50:58;;;;;;;1.50;1.00;;;12.10;80.30;;;;;;5016800;28;20489;-77
2021/05/08 07:53:25;;;;;;;1.50;1.00;;;12.20;79.10;;;;;;5039473;28;20508;-75
2021/05/08 07:55:52;;;;;;;1.50;1.00;;;12.30;79.30;;;;;;5014017;28;20987;-76
2021/05/08 07:58:18;;;;;;;1.50;1.00;;;12.30;79.20;;;;;;5038766;28;20475;-77
2021/05/08 08:00:44;;;;;;;1.50;1.00;;;12.40;79.10;;;;;;5021005;28;20575;-76
2021/05/08 08:03:10;;;;;;;1.50;1.00;;;12.40;79.00;;;;;;5013370;28;20498;-77
2021/05/08 08:05:37;;;;;;;1.50;1.13;;;12.50;78.60;;;;;;5020236;28;20459;-77
2021/05/08 08:08:04;;;;;;;1.43;0.90;;;12.60;78.90;;;;;;5013553;28;20479;-77
2021/05/08 08:10:30;;;;;;;1.50;0.90;;;12.80;78.90;;;;;;5019911;28;21184;-77
2021/05/08 08:12:57;;;;;;;1.50;0.90;;;12.90;78.60;;;;;;5012278;28;21028;-77
2021/05/08 08:15:24;;;;;;;1.50;1.00;;;13.10;78.10;;;;;;5018955;28;20554;-78
2021/05/08 08:17:50;;;;;;;1.50;1.00;;;13.30;78.40;;;;;;5024355;28;20478;-77
2021/05/08 08:20:16;;;;;;;1.50;0.90;;;13.40;76.80;;;;;;5015795;28;20464;-79
2021/05/08 08:22:44;;;;;;;1.50;1.00;;;13.50;77.10;;;;;;5014087;28;20491;-77
2021/05/08 08:25:11;;;;;;;1.50;1.00;;;13.70;77.00;;;;;;5028111;28;21024;-77
2021/05/08 08:27:38;;;;;;;1.50;1.00;;;13.80;76.80;;;;;;5003789;28;20488;-77
2021/05/08 08:30:08;;;;;;;1.50;0.90;;;13.90;76.30;;;;;;5020270;28;20477;-78
2021/05/08 08:32:34;;;;;;;1.50;0.93;;;14.00;75.30;;;;;;5024353;28;20500;-78
2021/05/08 08:35:00;;;;;;;1.50;1.00;;;14.00;75.90;;;;;;5018936;28;20464;-77
2021/05/08 08:37:27;;;;;;;1.50;0.97;;;14.10;75.60;;;;;;5006962;28;20558;-78
2021/05/08 08:39:53;;;;;;;1.50;1.00;;;14.20;75.50;;;;;;5017307;28;20540;-77
2021/05/08 08:42:20;;;;;;;1.50;0.90;;;14.30;75.50;;;;;;5018725;28;20892;-78
2021/05/08 08:44:47;;;;;;;1.50;0.90;;;14.40;75.20;;;;;;5028149;28;20828;-77
2021/05/08 08:47:28;;;;;;;1.50;1.00;;;14.50;75.50;;;;;;5021937;28;20516;-77
2021/05/08 08:49:58;;;;;;;1.50;0.90;;;14.60;74.00;;;;;;5023628;28;20598;-78
2021/05/08 08:52:25;;;;;;;1.50;0.90;;;14.80;74.20;;;;;;5008944;28;20492;-80
2021/05/08 08:54:53;;;;;;;1.50;1.00;;;14.90;73.70;;;;;;5026102;28;20471;-78
2021/05/08 08:57:25;;;;;;;1.50;0.90;;;14.90;72.90;;;;;;5031255;28;20521;-78
2021/05/08 08:59:53;;;;;;;1.50;1.00;;;14.90;72.90;;;;;;5032165;28;20485;-78
2021/05/08 09:02:24;;;;;;;1.50;1.00;;;15.00;73.50;;;;;;5018000;28;20483;-79
2021/05/08 09:04:50;;;;;;;1.47;0.90;;;15.00;72.00;;;;;;5026033;28;20468;-78
2021/05/08 09:07:18;;;;;;;1.50;1.00;;;14.90;71.80;;;;;;5016424;28;20510;-80
2021/05/08 09:09:45;;;;;;;1.60;1.43;;;14.90;73.20;;;;;;5026630;28;21027;-79
2021/05/08 09:12:14;;;;;;;1.50;0.90;;;15.10;72.20;;;;;;5003444;28;20491;-78
2021/05/08 09:14:46;;;;;;;1.50;0.97;;;15.20;71.10;;;;;;5018811;28;20694;-82
2021/05/08 09:17:14;;;;;;;1.50;1.10;;;15.30;70.90;;;;;;5014245;28;20509;-78
2021/05/08 09:19:42;;;;;;;1.80;1.40;;;15.30;70.70;;;;;;5021534;28;20471;-79
2021/05/08 09:22:29;;;;;;;1.50;1.00;;;15.40;71.20;;;;;;5022484;28;20482;-79
2021/05/08 09:24:59;;;;;;;1.50;0.90;;;15.50;70.40;;;;;;5023720;28;20518;-78
2021/05/08 09:27:43;;;;;;;1.50;0.90;;;15.90;70.20;;;;;;5012333;28;20484;-78
2021/05/08 09:30:29;;;;;;;1.50;0.90;;;16.20;69.80;;;;;;5029341;28;21674;-76
2021/05/08 09:32:59;;;;;;;1.50;0.90;;;16.50;69.30;;;;;;5033234;28;20481;-78
2021/05/08 09:35:28;;;;;;;1.50;0.90;;;16.70;68.20;;;;;;5029005;28;20685;-77
2021/05/08 09:38:07;;;;;;;1.50;0.90;;;17.00;68.40;;;;;;5017229;28;20483;-76
2021/05/08 09:40:35;;;;;;;1.50;0.90;;;17.20;65.60;;;;;;5024992;28;20466;-77
2021/05/08 09:43:08;;;;;;;1.50;0.90;;;17.10;66.30;;;;;;5005227;28;20492;-77
2021/05/08 09:45:38;;;;;;;1.50;1.00;;;17.10;66.90;;;;;;5020877;28;20498;-76
2021/05/08 09:48:17;;;;;;;1.50;0.93;;;17.10;66.90;;;;;;5030115;28;20485;-76
2021/05/08 09:50:45;;;;;;;1.50;0.97;;;17.10;66.00;;;;;;5020586;28;20613;-77
2021/05/08 09:53:11;;;;;;;1.50;0.93;;;17.20;66.50;;;;;;5030960;28;20491;-76
2021/05/08 09:55:37;;;;;;;1.50;0.90;;;17.30;66.40;;;;;;5027714;28;20467;-78
2021/05/08 09:58:06;;;;;;;1.50;0.93;;;17.50;66.50;;;;;;5024681;28;20483;-76
2021/05/08 10:00:35;;;;;;;1.50;0.97;;;17.80;64.70;;;;;;5023532;28;20470;-76
2021/05/08 10:03:13;;;;;;;1.50;0.90;;;18.00;66.20;;;;;;5029585;28;20485;-77
2021/05/08 10:05:41;;;;;;;1.50;1.00;;;18.30;63.70;;;;;;5025957;28;21081;-78
2021/05/08 10:08:09;;;;;;;1.50;0.90;;;18.40;62.20;;;;;;5032324;28;20925;-78
2021/05/08 10:10:36;;;;;;;2.13;1.93;;;18.30;62.20;;;;;;5027180;28;20828;-75
2021/05/08 10:13:07;;;;;;;1.50;0.90;;;18.30;61.70;;;;;;5016326;28;20920;-79
2021/05/08 10:15:34;;;;;;;1.50;0.90;;;18.30;61.70;;;;;;5027139;28;20463;-78
2021/05/08 10:18:03;;;;;;;1.50;0.90;;;18.20;61.40;;;;;;5033174;28;20486;-76
2021/05/08 10:20:30;;;;;;;1.47;0.90;;;18.20;62.30;;;;;;5028522;28;20467;-77
2021/05/08 10:22:58;;;;;;;1.50;1.00;;;18.20;61.80;;;;;;5031974;28;20540;-78
2021/05/08 10:25:26;;;;;;;1.50;1.00;;;18.30;61.40;;;;;;5028663;28;21088;-77
2021/05/08 10:27:53;;;;;;;1.43;0.90;;;18.20;61.70;;;;;;5032674;28;20498;-77
2021/05/08 10:30:26;;;;;;;1.47;0.90;;;18.30;62.70;;;;;;5021959;28;20731;-78
2021/05/08 10:32:53;;;;;;;1.50;1.30;;;18.40;62.10;;;;;;5010214;28;20489;-79
2021/05/08 10:35:23;;;;;;;1.50;0.90;;;18.40;61.60;;;;;;5027833;28;20689;-79
2021/05/08 10:38:20;;;;;;;1.50;0.90;;;18.60;62.10;;;;;;5016298;28;20901;-78
2021/05/08 10:40:53;;;;;;;1.50;0.90;;;18.70;61.10;;;;;;5027040;28;20459;-77
2021/05/08 10:43:39;;;;;;;1.50;0.90;;;18.80;61.10;;;;;;5014092;28;20829;-79
2021/05/08 10:46:06;;;;;;;1.47;0.90;;;18.80;59.90;;;;;;5021864;28;22244;-78
2021/05/08 10:48:32;;;;;;;1.47;0.90;;;18.80;60.60;;;;;;5046242;28;20468;-79
2021/05/08 10:51:00;;;;;;;1.50;0.90;;;19.00;59.60;;;;;;5018363;28;20598;-78
2021/05/08 10:53:38;;;;;;;1.50;0.90;;;19.10;59.40;;;;;;5032718;28;20460;-79
2021/05/08 10:56:06;;;;;;;1.50;0.90;;;19.20;59.10;;;;;;5015269;28;20855;-77
2021/05/08 10:58:37;;;;;;;1.50;0.90;;;19.10;60.70;;;;;;5026772;28;20517;-81
2021/05/08 11:01:10;;;;;;;1.50;0.90;;;18.90;58.70;;;;;;5027414;28;20493;-78
2021/05/08 11:04:03;;;;;;;1.50;0.90;;;18.60;60.20;;;;;;5042488;28;20841;-80
2021/05/08 11:06:29;;;;;;;1.50;0.90;;;18.50;60.90;;;;;;5025218;28;20494;-80
2021/05/08 11:08:56;;;;;;;1.47;0.90;;;18.50;62.00;;;;;;5035896;28;20470;-82
2021/05/08 11:11:25;;;;;;;1.50;1.00;;;18.50;60.50;;;;;;5015079;28;21068;-80
2021/05/08 11:13:55;;;;;;;1.50;0.90;;;18.50;61.30;;;;;;5034970;28;20471;-79
2021/05/08 11:16:23;;;;;;;1.50;1.00;;;18.40;60.70;;;;;;5014575;28;20483;-80
2021/05/08 11:18:50;;;;;;;1.43;0.90;;;18.30;61.70;;;;;;5027308;28;20485;-79
2021/05/08 11:21:41;;;;;;;1.60;1.40;;;18.30;62.00;;;;;;5015321;28;20486;-78
2021/05/08 11:24:12;;;;;;;1.47;0.90;;;18.40;61.40;;;;;;5026779;28;20555;-80
2021/05/08 11:26:41;;;;;;;1.50;1.00;;;18.50;61.90;;;;;;5024860;28;21239;-77
2021/05/08 11:29:10;;;;;;;1.50;0.90;;;18.60;61.10;;;;;;5021725;28;20610;-78
2021/05/08 11:31:38;;;;;;;1.50;0.90;;;18.60;61.00;;;;;;5024677;28;20514;-79
2021/05/08 11:34:09;;;;;;;1.50;0.90;;;18.60;61.20;;;;;;5033428;28;20524;-78
2021/05/08 11:36:46;;;;;;;1.50;0.90;;;18.50;61.60;;;;;;5014221;28;20907;-77
2021/05/08 11:39:16;;;;;;;1.50;0.90;;;18.40;62.10;;;;;;5028706;28;20502;-77
2021/05/08 11:41:44;;;;;;;1.50;1.00;;;18.30;61.80;;;;;;5018406;28;20505;-78
2021/05/08 11:44:22;;;;;;;1.43;0.90;;;18.00;62.80;;;;;;5035736;28;20475;-80
2021/05/08 11:46:57;;;;;;;1.47;0.93;;;17.90;63.70;;;;;;5022062;28;20489;-79
2021/05/08 11:49:25;;;;;;;1.50;1.10;;;17.80;64.50;;;;;;5027965;28;20582;-78
2021/05/08 11:51:52;;;;;;;1.50;0.97;;;17.70;64.70;;;;;;5021766;28;20490;-78
2021/05/08 11:54:18;;;;;;;1.50;0.90;;;17.40;65.20;;;;;;5029158;28;20470;-78
2021/05/08 11:56:45;;;;;;;1.50;1.10;;;17.30;67.00;;;;;;5020879;28;20548;-77
2021/05/08 11:59:12;;;;;;;1.47;1.00;;;17.00;66.80;;;;;;5029894;28;20489;-77
2021/05/08 12:01:38;;;;;;;1.47;0.90;;;16.80;68.80;;;;;;5006476;28;20484;-79
2021/05/08 12:04:06;;;;;;;1.50;1.00;;;16.70;69.60;;;;;;5020630;28;20479;-81
2021/05/08 12:06:33;;;;;;;1.47;0.90;;;16.60;70.10;;;;;;5013361;28;20589;-77
2021/05/08 12:09:09;;;;;;;1.50;0.90;;;16.50;70.50;;;;;;5028855;28;21081;-78
2021/05/08 12:11:35;;;;;;;1.47;0.90;;;16.50;71.10;;;;;;5017533;28;20709;-77
2021/05/08 12:14:12;;;;;;;1.50;0.90;;;16.50;71.30;;;;;;5035597;28;20471;-77
2021/05/08 12:16:39;;;;;;;1.40;1.00;;;16.50;71.30;;;;;;5013098;28;20494;-77
2021/05/08 12:19:06;;;;;;;1.43;1.00;;;16.50;71.10;;;;;;5026523;28;20459;-77
2021/05/08 12:21:32;;;;;;;1.47;0.93;;;16.50;70.30;;;;;;5012040;28;20487;-76
2021/05/08 12:23:58;;;;;;;1.47;0.97;;;16.60;70.30;;;;;;5021130;28;20493;-77
2021/05/08 12:26:25;;;;;;;1.50;1.00;;;16.50;69.70;;;;;;5017312;28;21056;-77
2021/05/08 12:28:56;;;;;;;1.50;0.93;;;16.50;70.20;;;;;;5025719;28;20574;-78
2021/05/08 12:31:29;;;;;;;1.50;1.00;;;16.50;70.30;;;;;;5007875;28;20505;-77
2021/05/08 12:33:57;;;;;;;1.50;1.00;;;16.50;70.80;;;;;;5020328;28;21048;-77
2021/05/08 12:36:25;;;;;;;1.50;0.90;;;16.50;71.60;;;;;;5022601;28;20498;-77
2021/05/08 12:38:53;;;;;;;1.47;0.90;;;16.40;70.80;;;;;;5035428;28;20970;-78
2021/05/08 12:41:29;;;;;;;1.50;1.00;;;16.30;71.20;;;;;;5012009;28;20479;-77
2021/05/08 12:44:07;;;;;;;1.50;1.00;;;16.30;70.20;;;;;;5021997;28;20490;-77
2021/05/08 12:46:54;;;;;;;1.50;1.00;;;16.30;70.00;;;;;;5018773;28;20500;-78
2021/05/08 12:49:21;;;;;;;1.50;0.90;;;16.30;70.40;;;;;;5031071;28;20495;-78
2021/05/08 12:51:48;;;;;;;1.50;1.00;;;16.30;70.50;;;;;;5013119;28;20895;-77
2021/05/08 12:54:22;;;;;;;1.50;0.90;;;16.20;70.70;;;;;;5019946;28;20572;-77
2021/05/08 12:56:51;;;;;;;1.47;0.90;;;16.20;70.90;;;;;;5014675;28;20490;-78